sensor_id;sensor_type;location;lat;lon;timestamp;temperature;humidity
70421;SHT31;57848;51.938;15.520;2022-11-02T00:00:27;12.06;90.47
70421;SHT31;57848;51.938;15.520;2022-11-02T00:02:54;12.05;90.48
70421;SHT31;57848;51.938;15.520;2022-11-02T00:05:19;12.03;90.38
70421;SHT31;57848;51.938;15.520;2022-11-02T00:07:49;12.09;90.42
70421;SHT31;57848;51.938;15.520;2022-11-02T00:10:15;12.06;90.31
70421;SHT31;57848;51.938;15.520;2022-11-02T00:12:40;12.11;90.19
70421;SHT31;57848;51.938;15.520;2022-11-02T00:15:06;12.03;90.31
70421;SHT31;57848;51.938;15.520;2022-11-02T00:17:32;11.99;90.50
70421;SHT31;57848;51.938;15.520;2022-11-02T00:19:57;11.98;90.32
70421;SHT31;57848;51.938;15.520;2022-11-02T00:22:24;11.93;90.48
70421;SHT31;57848;51.938;15.520;2022-11-02T00:24:49;12.02;90.00
70421;SHT31;57848;51.938;15.520;2022-11-02T00:27:14;12.15;89.67
70421;SHT31;57848;51.938;15.520;2022-11-02T00:29:40;12.19;89.45
70421;SHT31;57848;51.938;15.520;2022-11-02T00:32:05;12.12;89.35
70421;SHT31;57848;51.938;15.520;2022-11-02T00:34:30;12.18;88.99
70421;SHT31;57848;51.938;15.520;2022-11-02T00:36:56;12.13;89.06
70421;SHT31;57848;51.938;15.520;2022-11-02T00:39:21;12.21;88.42
70421;SHT31;57848;51.938;15.520;2022-11-02T00:41:46;12.23;88.25
70421;SHT31;57848;51.938;15.520;2022-11-02T00:44:12;12.19;88.00
70421;SHT31;57848;51.938;15.520;2022-11-02T00:46:37;12.15;87.84
70421;SHT31;57848;51.938;15.520;2022-11-02T00:49:02;12.16;87.38
70421;SHT31;57848;51.938;15.520;2022-11-02T00:51:31;12.11;87.49
70421;SHT31;57848;51.938;15.520;2022-11-02T00:53:56;12.08;87.53
70421;SHT31;57848;51.938;15.520;2022-11-02T00:56:22;12.02;87.17
70421;SHT31;57848;51.938;15.520;2022-11-02T00:58:47;11.93;87.33
70421;SHT31;57848;51.938;15.520;2022-11-02T01:01:12;11.95;87.39
70421;SHT31;57848;51.938;15.520;2022-11-02T01:03:37;11.96;86.77
70421;SHT31;57848;51.938;15.520;2022-11-02T01:06:11;11.96;86.41
70421;SHT31;57848;51.938;15.520;2022-11-02T01:08:36;12.01;85.84
70421;SHT31;57848;51.938;15.520;2022-11-02T01:11:28;12.01;85.60
70421;SHT31;57848;51.938;15.520;2022-11-02T01:13:53;11.93;85.49
70421;SHT31;57848;51.938;15.520;2022-11-02T01:16:19;11.91;85.19
70421;SHT31;57848;51.938;15.520;2022-11-02T01:18:44;12.02;84.50
70421;SHT31;57848;51.938;15.520;2022-11-02T01:21:11;11.93;84.75
70421;SHT31;57848;51.938;15.520;2022-11-02T01:23:37;11.93;84.39
70421;SHT31;57848;51.938;15.520;2022-11-02T01:26:07;11.93;84.34
70421;SHT31;57848;51.938;15.520;2022-11-02T01:28:34;11.95;83.93
70421;SHT31;57848;51.938;15.520;2022-11-02T01:30:59;11.93;83.99
70421;SHT31;57848;51.938;15.520;2022-11-02T01:33:25;11.92;83.66
70421;SHT31;57848;51.938;15.520;2022-11-02T01:35:53;11.91;83.68
70421;SHT31;57848;51.938;15.520;2022-11-02T01:38:21;11.84;83.65
70421;SHT31;57848;51.938;15.520;2022-11-02T01:40:46;11.82;83.63
70421;SHT31;57848;51.938;15.520;2022-11-02T01:43:19;11.82;83.23
70421;SHT31;57848;51.938;15.520;2022-11-02T01:45:46;11.82;83.24
70421;SHT31;57848;51.938;15.520;2022-11-02T01:48:11;11.84;82.97
70421;SHT31;57848;51.938;15.520;2022-11-02T01:50:37;11.91;82.81
70421;SHT31;57848;51.938;15.520;2022-11-02T01:53:03;11.93;82.72
70421;SHT31;57848;51.938;15.520;2022-11-02T01:55:31;11.88;82.88
70421;SHT31;57848;51.938;15.520;2022-11-02T01:58:06;11.84;82.97
70421;SHT31;57848;51.938;15.520;2022-11-02T02:00:32;11.82;82.92
70421;SHT31;57848;51.938;15.520;2022-11-02T02:03:07;11.92;83.20
70421;SHT31;57848;51.938;15.520;2022-11-02T02:05:39;11.82;83.76
70421;SHT31;57848;51.938;15.520;2022-11-02T02:08:07;11.88;84.16
70421;SHT31;57848;51.938;15.520;2022-11-02T02:10:34;11.85;84.60
70421;SHT31;57848;51.938;15.520;2022-11-02T02:13:03;11.89;84.91
70421;SHT31;57848;51.938;15.520;2022-11-02T02:15:43;11.88;85.11
70421;SHT31;57848;51.938;15.520;2022-11-02T02:18:22;11.74;85.54
70421;SHT31;57848;51.938;15.520;2022-11-02T02:21:22;11.78;85.60
70421;SHT31;57848;51.938;15.520;2022-11-02T02:27:06;11.65;85.93
70421;SHT31;57848;51.938;15.520;2022-11-02T02:29:51;11.53;86.62
70421;SHT31;57848;51.938;15.520;2022-11-02T02:35:45;11.40;86.85
70421;SHT31;57848;51.938;15.520;2022-11-02T02:38:14;11.24;87.29
70421;SHT31;57848;51.938;15.520;2022-11-02T02:40:51;11.16;87.31
70421;SHT31;57848;51.938;15.520;2022-11-02T02:43:27;11.10;87.32
70421;SHT31;57848;51.938;15.520;2022-11-02T02:49:03;10.96;87.66
70421;SHT31;57848;51.938;15.520;2022-11-02T02:51:32;10.89;87.77
70421;SHT31;57848;51.938;15.520;2022-11-02T02:54:02;10.89;87.99
70421;SHT31;57848;51.938;15.520;2022-11-02T02:56:33;10.72;88.38
70421;SHT31;57848;51.938;15.520;2022-11-02T02:59:27;10.73;88.09
70421;SHT31;57848;51.938;15.520;2022-11-02T03:01:55;10.71;88.23
70421;SHT31;57848;51.938;15.520;2022-11-02T03:04:22;10.63;88.25
70421;SHT31;57848;51.938;15.520;2022-11-02T03:06:51;10.59;88.54
70421;SHT31;57848;51.938;15.520;2022-11-02T03:09:39;10.56;88.66
70421;SHT31;57848;51.938;15.520;2022-11-02T03:12:32;10.49;88.86
70421;SHT31;57848;51.938;15.520;2022-11-02T03:15:08;10.45;88.90
70421;SHT31;57848;51.938;15.520;2022-11-02T03:23:18;10.28;89.58
70421;SHT31;57848;51.938;15.520;2022-11-02T03:31:22;10.15;89.38
70421;SHT31;57848;51.938;15.520;2022-11-02T03:33:54;10.18;88.98
70421;SHT31;57848;51.938;15.520;2022-11-02T03:36:26;10.13;89.26
70421;SHT31;57848;51.938;15.520;2022-11-02T03:38:59;10.10;89.09
70421;SHT31;57848;51.938;15.520;2022-11-02T03:41:29;10.13;88.86
70421;SHT31;57848;51.938;15.520;2022-11-02T03:44:03;10.05;88.95
70421;SHT31;57848;51.938;15.520;2022-11-02T03:46:32;10.04;88.61
70421;SHT31;57848;51.938;15.520;2022-11-02T03:48:59;10.04;88.38
70421;SHT31;57848;51.938;15.520;2022-11-02T03:51:28;10.03;88.71
70421;SHT31;57848;51.938;15.520;2022-11-02T03:54:18;10.04;88.98
70421;SHT31;57848;51.938;15.520;2022-11-02T03:56:49;10.01;89.09
70421;SHT31;57848;51.938;15.520;2022-11-02T03:59:16;10.01;89.28
70421;SHT31;57848;51.938;15.520;2022-11-02T04:01:44;9.97;89.33
70421;SHT31;57848;51.938;15.520;2022-11-02T04:04:11;10.00;89.19
70421;SHT31;57848;51.938;15.520;2022-11-02T04:06:38;9.94;89.43
70421;SHT31;57848;51.938;15.520;2022-11-02T04:09:06;9.95;89.55
70421;SHT31;57848;51.938;15.520;2022-11-02T04:11:31;9.94;89.66
70421;SHT31;57848;51.938;15.520;2022-11-02T04:14:16;9.91;89.67
70421;SHT31;57848;51.938;15.520;2022-11-02T04:17:01;9.87;89.82
70421;SHT31;57848;51.938;15.520;2022-11-02T04:19:49;9.79;90.27
70421;SHT31;57848;51.938;15.520;2022-11-02T04:22:14;9.77;90.33
70421;SHT31;57848;51.938;15.520;2022-11-02T04:25:11;9.79;90.37
70421;SHT31;57848;51.938;15.520;2022-11-02T04:27:47;9.73;90.63
70421;SHT31;57848;51.938;15.520;2022-11-02T04:30:14;9.80;90.76
70421;SHT31;57848;51.938;15.520;2022-11-02T04:32:42;9.72;90.84
70421;SHT31;57848;51.938;15.520;2022-11-02T04:35:31;9.79;90.91
70421;SHT31;57848;51.938;15.520;2022-11-02T04:37:57;9.84;90.55
70421;SHT31;57848;51.938;15.520;2022-11-02T04:40:42;9.74;90.64
70421;SHT31;57848;51.938;15.520;2022-11-02T04:43:08;9.70;90.75
70421;SHT31;57848;51.938;15.520;2022-11-02T04:45:34;9.73;90.70
70421;SHT31;57848;51.938;15.520;2022-11-02T04:48:03;9.63;90.82
70421;SHT31;57848;51.938;15.520;2022-11-02T04:50:29;9.59;91.01
70421;SHT31;57848;51.938;15.520;2022-11-02T04:52:57;9.56;90.99
70421;SHT31;57848;51.938;15.520;2022-11-02T04:55:23;9.55;91.18
70421;SHT31;57848;51.938;15.520;2022-11-02T04:57:48;9.43;91.26
70421;SHT31;57848;51.938;15.520;2022-11-02T05:00:14;9.43;91.36
70421;SHT31;57848;51.938;15.520;2022-11-02T05:02:40;9.45;91.32
70421;SHT31;57848;51.938;15.520;2022-11-02T05:05:06;9.42;91.52
70421;SHT31;57848;51.938;15.520;2022-11-02T05:07:32;9.42;91.40
70421;SHT31;57848;51.938;15.520;2022-11-02T05:09:57;9.40;91.56
70421;SHT31;57848;51.938;15.520;2022-11-02T05:12:23;9.31;91.72
70421;SHT31;57848;51.938;15.520;2022-11-02T05:14:48;9.36;91.79
70421;SHT31;57848;51.938;15.520;2022-11-02T05:17:14;9.35;91.63
70421;SHT31;57848;51.938;15.520;2022-11-02T05:19:41;9.36;91.56
70421;SHT31;57848;51.938;15.520;2022-11-02T05:22:06;9.26;91.76
70421;SHT31;57848;51.938;15.520;2022-11-02T05:24:32;9.22;91.95
70421;SHT31;57848;51.938;15.520;2022-11-02T05:26:58;9.24;91.95
70421;SHT31;57848;51.938;15.520;2022-11-02T05:29:29;9.25;91.88
70421;SHT31;57848;51.938;15.520;2022-11-02T05:31:55;9.34;91.53
70421;SHT31;57848;51.938;15.520;2022-11-02T05:34:21;9.31;91.61
70421;SHT31;57848;51.938;15.520;2022-11-02T05:36:47;9.32;91.56
70421;SHT31;57848;51.938;15.520;2022-11-02T05:39:14;9.26;91.72
70421;SHT31;57848;51.938;15.520;2022-11-02T05:41:39;9.29;91.43
70421;SHT31;57848;51.938;15.520;2022-11-02T05:44:05;9.28;91.55
70421;SHT31;57848;51.938;15.520;2022-11-02T05:46:30;9.32;91.38
70421;SHT31;57848;51.938;15.520;2022-11-02T05:48:55;9.29;91.56
70421;SHT31;57848;51.938;15.520;2022-11-02T05:51:21;9.31;91.41
70421;SHT31;57848;51.938;15.520;2022-11-02T05:53:46;9.34;91.13
70421;SHT31;57848;51.938;15.520;2022-11-02T05:56:11;9.29;91.26
70421;SHT31;57848;51.938;15.520;2022-11-02T05:58:38;9.26;91.29
70421;SHT31;57848;51.938;15.520;2022-11-02T06:01:05;9.18;91.46
70421;SHT31;57848;51.938;15.520;2022-11-02T06:03:31;9.19;91.35
70421;SHT31;57848;51.938;15.520;2022-11-02T06:06:01;9.22;91.42
70421;SHT31;57848;51.938;15.520;2022-11-02T06:08:30;9.21;91.41
70421;SHT31;57848;51.938;15.520;2022-11-02T06:10:55;9.19;91.01
70421;SHT31;57848;51.938;15.520;2022-11-02T06:13:21;9.26;90.63
70421;SHT31;57848;51.938;15.520;2022-11-02T06:15:46;9.28;90.75
70421;SHT31;57848;51.938;15.520;2022-11-02T06:18:12;9.29;90.46
70421;SHT31;57848;51.938;15.520;2022-11-02T06:20:37;9.24;90.39
70421;SHT31;57848;51.938;15.520;2022-11-02T06:23:02;9.25;90.39
70421;SHT31;57848;51.938;15.520;2022-11-02T06:25:27;9.26;90.35
70421;SHT31;57848;51.938;15.520;2022-11-02T06:27:54;9.31;89.84
70421;SHT31;57848;51.938;15.520;2022-11-02T06:30:27;9.34;89.72
70421;SHT31;57848;51.938;15.520;2022-11-02T06:32:52;9.38;89.51
70421;SHT31;57848;51.938;15.520;2022-11-02T06:35:19;9.35;89.42
70421;SHT31;57848;51.938;15.520;2022-11-02T06:37:45;9.42;89.36
70421;SHT31;57848;51.938;15.520;2022-11-02T06:40:11;9.46;88.98
70421;SHT31;57848;51.938;15.520;2022-11-02T06:42:38;9.46;89.20
70421;SHT31;57848;51.938;15.520;2022-11-02T06:45:04;9.45;88.85
70421;SHT31;57848;51.938;15.520;2022-11-02T06:47:34;9.49;88.70
70421;SHT31;57848;51.938;15.520;2022-11-02T06:50:00;9.50;88.57
70421;SHT31;57848;51.938;15.520;2022-11-02T06:52:28;9.46;89.06
70421;SHT31;57848;51.938;15.520;2022-11-02T06:54:54;9.40;88.97
70421;SHT31;57848;51.938;15.520;2022-11-02T06:57:20;9.49;88.83
70421;SHT31;57848;51.938;15.520;2022-11-02T06:59:46;9.53;88.83
70421;SHT31;57848;51.938;15.520;2022-11-02T07:02:11;9.50;88.55
70421;SHT31;57848;51.938;15.520;2022-11-02T07:04:36;9.60;88.14
70421;SHT31;57848;51.938;15.520;2022-11-02T07:07:02;9.66;88.11
70421;SHT31;57848;51.938;15.520;2022-11-02T07:09:27;9.70;88.14
70421;SHT31;57848;51.938;15.520;2022-11-02T07:11:52;9.72;88.06
70421;SHT31;57848;51.938;15.520;2022-11-02T07:14:18;9.73;87.81
70421;SHT31;57848;51.938;15.520;2022-11-02T07:16:43;9.76;87.43
70421;SHT31;57848;51.938;15.520;2022-11-02T07:19:08;9.82;87.29
70421;SHT31;57848;51.938;15.520;2022-11-02T07:21:34;9.91;86.84
70421;SHT31;57848;51.938;15.520;2022-11-02T07:23:59;9.95;86.38
70421;SHT31;57848;51.938;15.520;2022-11-02T07:26:25;9.97;86.50
70421;SHT31;57848;51.938;15.520;2022-11-02T07:28:51;10.04;86.17
70421;SHT31;57848;51.938;15.520;2022-11-02T07:31:16;10.20;85.41
70421;SHT31;57848;51.938;15.520;2022-11-02T07:33:42;10.17;85.51
70421;SHT31;57848;51.938;15.520;2022-11-02T07:36:07;10.20;85.50
70421;SHT31;57848;51.938;15.520;2022-11-02T07:38:32;10.22;85.23
70421;SHT31;57848;51.938;15.520;2022-11-02T07:40:58;10.25;84.97
70421;SHT31;57848;51.938;15.520;2022-11-02T07:43:23;10.31;84.44
70421;SHT31;57848;51.938;15.520;2022-11-02T07:46:14;10.35;85.05
70421;SHT31;57848;51.938;15.520;2022-11-02T07:48:39;10.40;84.96
70421;SHT31;57848;51.938;15.520;2022-11-02T07:51:04;10.42;84.58
70421;SHT31;57848;51.938;15.520;2022-11-02T07:53:31;10.44;84.60
70421;SHT31;57848;51.938;15.520;2022-11-02T07:55:59;10.49;84.50
70421;SHT31;57848;51.938;15.520;2022-11-02T07:58:24;10.52;84.30
70421;SHT31;57848;51.938;15.520;2022-11-02T08:00:51;10.61;84.10
70421;SHT31;57848;51.938;15.520;2022-11-02T08:03:16;10.66;83.74
70421;SHT31;57848;51.938;15.520;2022-11-02T08:05:42;10.75;82.91
70421;SHT31;57848;51.938;15.520;2022-11-02T08:08:25;10.80;82.95
70421;SHT31;57848;51.938;15.520;2022-11-02T08:10:51;10.83;82.96
70421;SHT31;57848;51.938;15.520;2022-11-02T08:13:22;10.89;82.98
70421;SHT31;57848;51.938;15.520;2022-11-02T08:15:49;10.96;82.31
70421;SHT31;57848;51.938;15.520;2022-11-02T08:18:17;10.96;82.72
70421;SHT31;57848;51.938;15.520;2022-11-02T08:20:43;11.07;81.55
70421;SHT31;57848;51.938;15.520;2022-11-02T08:23:13;11.16;81.81
70421;SHT31;57848;51.938;15.520;2022-11-02T08:25:40;11.16;81.70
70421;SHT31;57848;51.938;15.520;2022-11-02T08:28:09;11.14;82.04
70421;SHT31;57848;51.938;15.520;2022-11-02T08:30:36;11.22;81.67
70421;SHT31;57848;51.938;15.520;2022-11-02T08:33:13;11.19;81.52
70421;SHT31;57848;51.938;15.520;2022-11-02T08:35:43;11.28;80.87
70421;SHT31;57848;51.938;15.520;2022-11-02T08:38:09;11.31;81.28
70421;SHT31;57848;51.938;15.520;2022-11-02T08:40:35;11.38;80.92
70421;SHT31;57848;51.938;15.520;2022-11-02T08:43:03;11.40;80.99
70421;SHT31;57848;51.938;15.520;2022-11-02T08:45:30;11.45;80.71
70421;SHT31;57848;51.938;15.520;2022-11-02T08:47:56;11.47;80.67
70421;SHT31;57848;51.938;15.520;2022-11-02T08:50:22;11.51;80.88
70421;SHT31;57848;51.938;15.520;2022-11-02T08:52:48;11.51;81.07
70421;SHT31;57848;51.938;15.520;2022-11-02T08:55:13;11.60;80.74
70421;SHT31;57848;51.938;15.520;2022-11-02T08:57:46;11.71;80.55
70421;SHT31;57848;51.938;15.520;2022-11-02T09:00:12;11.92;79.68
70421;SHT31;57848;51.938;15.520;2022-11-02T09:02:37;12.01;79.69
70421;SHT31;57848;51.938;15.520;2022-11-02T09:05:03;12.09;79.38
70421;SHT31;57848;51.938;15.520;2022-11-02T09:07:28;12.15;79.33
70421;SHT31;57848;51.938;15.520;2022-11-02T09:09:54;12.19;79.22
70421;SHT31;57848;51.938;15.520;2022-11-02T09:12:20;12.28;78.81
70421;SHT31;57848;51.938;15.520;2022-11-02T09:14:46;12.32;78.17
70421;SHT31;57848;51.938;15.520;2022-11-02T09:17:11;12.34;77.55
70421;SHT31;57848;51.938;15.520;2022-11-02T09:19:36;12.37;78.32
70421;SHT31;57848;51.938;15.520;2022-11-02T09:22:01;12.52;77.71
70421;SHT31;57848;51.938;15.520;2022-11-02T09:24:27;12.63;77.44
70421;SHT31;57848;51.938;15.520;2022-11-02T09:26:52;12.85;76.75
70421;SHT31;57848;51.938;15.520;2022-11-02T09:29:17;12.88;76.86
70421;SHT31;57848;51.938;15.520;2022-11-02T09:31:43;12.91;76.08
70421;SHT31;57848;51.938;15.520;2022-11-02T09:34:08;13.08;75.33
70421;SHT31;57848;51.938;15.520;2022-11-02T09:36:33;13.72;73.71
70421;SHT31;57848;51.938;15.520;2022-11-02T09:38:59;15.41;68.38
70421;SHT31;57848;51.938;15.520;2022-11-02T09:41:47;16.12;64.25
70421;SHT31;57848;51.938;15.520;2022-11-02T09:44:24;17.49;60.27
70421;SHT31;57848;51.938;15.520;2022-11-02T09:46:52;18.04;58.92
70421;SHT31;57848;51.938;15.520;2022-11-02T09:49:23;19.24;55.47
70421;SHT31;57848;51.938;15.520;2022-11-02T09:51:51;19.79;54.25
70421;SHT31;57848;51.938;15.520;2022-11-02T09:56:57;20.52;51.03
70421;SHT31;57848;51.938;15.520;2022-11-02T09:59:25;21.05;50.82
70421;SHT31;57848;51.938;15.520;2022-11-02T10:07:48;21.72;48.37
70421;SHT31;57848;51.938;15.520;2022-11-02T10:15:49;20.49;50.88
70421;SHT31;57848;51.938;15.520;2022-11-02T10:18:23;19.79;52.39
70421;SHT31;57848;51.938;15.520;2022-11-02T10:20:52;19.96;52.38
70421;SHT31;57848;51.938;15.520;2022-11-02T10:23:24;20.01;52.34
70421;SHT31;57848;51.938;15.520;2022-11-02T10:25:51;20.74;50.47
70421;SHT31;57848;51.938;15.520;2022-11-02T10:28:23;20.90;49.63
70421;SHT31;57848;51.938;15.520;2022-11-02T10:30:52;21.31;49.14
70421;SHT31;57848;51.938;15.520;2022-11-02T10:33:21;22.16;47.51
70421;SHT31;57848;51.938;15.520;2022-11-02T10:36:08;21.82;47.32
70421;SHT31;57848;51.938;15.520;2022-11-02T10:44:23;21.93;47.21
70421;SHT31;57848;51.938;15.520;2022-11-02T10:47:13;21.21;48.65
70421;SHT31;57848;51.938;15.520;2022-11-02T10:52:43;22.60;45.87
70421;SHT31;57848;51.938;15.520;2022-11-02T10:55:18;21.81;47.15
70421;SHT31;57848;51.938;15.520;2022-11-02T10:57:46;21.56;48.38
70421;SHT31;57848;51.938;15.520;2022-11-02T11:00:30;20.95;49.66
70421;SHT31;57848;51.938;15.520;2022-11-02T11:03:07;19.92;51.97
70421;SHT31;57848;51.938;15.520;2022-11-02T11:05:37;19.12;53.77
70421;SHT31;57848;51.938;15.520;2022-11-02T11:08:04;20.14;51.36
70421;SHT31;57848;51.938;15.520;2022-11-02T11:10:36;20.21;51.56
70421;SHT31;57848;51.938;15.520;2022-11-02T11:13:02;20.52;50.89
70421;SHT31;57848;51.938;15.520;2022-11-02T11:15:31;21.61;48.76
70421;SHT31;57848;51.938;15.520;2022-11-02T11:17:56;22.36;46.77
70421;SHT31;57848;51.938;15.520;2022-11-02T11:20:33;23.19;45.08
70421;SHT31;57848;51.938;15.520;2022-11-02T11:23:18;23.23;45.05
70421;SHT31;57848;51.938;15.520;2022-11-02T11:28:39;22.54;45.59
70421;SHT31;57848;51.938;15.520;2022-11-02T11:31:14;23.40;44.36
70421;SHT31;57848;51.938;15.520;2022-11-02T11:33:42;24.19;43.28
70421;SHT31;57848;51.938;15.520;2022-11-02T11:36:10;23.03;44.80
70421;SHT31;57848;51.938;15.520;2022-11-02T11:38:36;22.30;46.30
70421;SHT31;57848;51.938;15.520;2022-11-02T11:41:02;21.03;48.92
70421;SHT31;57848;51.938;15.520;2022-11-02T11:43:30;21.11;48.87
70421;SHT31;57848;51.938;15.520;2022-11-02T11:46:00;22.43;46.76
70421;SHT31;57848;51.938;15.520;2022-11-02T11:48:36;22.55;45.65
70421;SHT31;57848;51.938;15.520;2022-11-02T11:56:49;20.16;51.42
70421;SHT31;57848;51.938;15.520;2022-11-02T11:59:19;19.17;54.00
70421;SHT31;57848;51.938;15.520;2022-11-02T12:01:45;18.69;55.42
70421;SHT31;57848;51.938;15.520;2022-11-02T12:04:10;18.31;56.80
70421;SHT31;57848;51.938;15.520;2022-11-02T12:07:01;18.20;57.47
70421;SHT31;57848;51.938;15.520;2022-11-02T12:09:38;17.96;57.34
70421;SHT31;57848;51.938;15.520;2022-11-02T12:15:16;17.87;58.06
70421;SHT31;57848;51.938;15.520;2022-11-02T12:18:04;17.43;58.52
70421;SHT31;57848;51.938;15.520;2022-11-02T12:24:13;16.92;59.85
70421;SHT31;57848;51.938;15.520;2022-11-02T12:26:55;16.70;60.38
70421;SHT31;57848;51.938;15.520;2022-11-02T12:29:49;16.49;61.60
70421;SHT31;57848;51.938;15.520;2022-11-02T12:35:33;16.15;63.12
70421;SHT31;57848;51.938;15.520;2022-11-02T12:38:16;15.99;63.83
70421;SHT31;57848;51.938;15.520;2022-11-02T12:40:55;15.88;64.08
70421;SHT31;57848;51.938;15.520;2022-11-02T12:43:37;15.74;64.33
70421;SHT31;57848;51.938;15.520;2022-11-02T12:51:28;15.78;64.28
70421;SHT31;57848;51.938;15.520;2022-11-02T12:53:58;15.78;64.47
70421;SHT31;57848;51.938;15.520;2022-11-02T12:56:31;15.72;64.69
70421;SHT31;57848;51.938;15.520;2022-11-02T12:58:59;15.67;63.93
70421;SHT31;57848;51.938;15.520;2022-11-02T13:01:28;15.51;63.97
70421;SHT31;57848;51.938;15.520;2022-11-02T13:06:41;15.17;65.15
70421;SHT31;57848;51.938;15.520;2022-11-02T13:09:20;15.09;65.28
70421;SHT31;57848;51.938;15.520;2022-11-02T13:11:52;15.03;65.37
70421;SHT31;57848;51.938;15.520;2022-11-02T13:14:19;14.95;65.20
70421;SHT31;57848;51.938;15.520;2022-11-02T13:16:56;15.17;64.96
70421;SHT31;57848;51.938;15.520;2022-11-02T13:19:35;15.47;64.07
70421;SHT31;57848;51.938;15.520;2022-11-02T13:22:03;16.16;62.46
70421;SHT31;57848;51.938;15.520;2022-11-02T13:24:35;16.88;59.87
70421;SHT31;57848;51.938;15.520;2022-11-02T13:27:05;16.87;59.93
70421;SHT31;57848;51.938;15.520;2022-11-02T13:29:39;16.66;60.58
70421;SHT31;57848;51.938;15.520;2022-11-02T13:34:49;15.97;62.45
70421;SHT31;57848;51.938;15.520;2022-11-02T13:37:37;15.71;63.29
70421;SHT31;57848;51.938;15.520;2022-11-02T13:40:13;15.53;63.49
70421;SHT31;57848;51.938;15.520;2022-11-02T13:43:06;15.47;63.05
70421;SHT31;57848;51.938;15.520;2022-11-02T13:45:51;15.33;63.56
70421;SHT31;57848;51.938;15.520;2022-11-02T13:50:53;15.00;63.66
70421;SHT31;57848;51.938;15.520;2022-11-02T13:53:26;14.88;64.48
70421;SHT31;57848;51.938;15.520;2022-11-02T13:56:03;14.76;64.80
70421;SHT31;57848;51.938;15.520;2022-11-02T13:58:45;14.71;65.42
70421;SHT31;57848;51.938;15.520;2022-11-02T14:01:16;14.65;65.67
70421;SHT31;57848;51.938;15.520;2022-11-02T14:03:48;14.61;65.81
70421;SHT31;57848;51.938;15.520;2022-11-02T14:06:16;14.59;66.06
70421;SHT31;57848;51.938;15.520;2022-11-02T14:08:48;14.52;66.29
70421;SHT31;57848;51.938;15.520;2022-11-02T14:22:07;14.46;67.13
70421;SHT31;57848;51.938;15.520;2022-11-02T14:26:59;14.38;67.63
70421;SHT31;57848;51.938;15.520;2022-11-02T14:35:35;14.13;68.18
70421;SHT31;57848;51.938;15.520;2022-11-02T14:38:26;14.11;67.51
70421;SHT31;57848;51.938;15.520;2022-11-02T14:41:14;14.13;67.15
70421;SHT31;57848;51.938;15.520;2022-11-02T14:44:05;14.06;67.04
70421;SHT31;57848;51.938;15.520;2022-11-02T14:49:17;13.91;67.57
70421;SHT31;57848;51.938;15.520;2022-11-02T14:51:44;13.83;67.95
70421;SHT31;57848;51.938;15.520;2022-11-02T14:54:19;13.84;67.96
70421;SHT31;57848;51.938;15.520;2022-11-02T14:59:35;13.72;68.52
70421;SHT31;57848;51.938;15.520;2022-11-02T15:02:05;13.67;68.77
70421;SHT31;57848;51.938;15.520;2022-11-02T15:04:33;13.72;68.96
70421;SHT31;57848;51.938;15.520;2022-11-02T15:07:02;13.70;68.75
70421;SHT31;57848;51.938;15.520;2022-11-02T15:09:51;13.73;68.80
70421;SHT31;57848;51.938;15.520;2022-11-02T15:12:26;13.76;68.78
70421;SHT31;57848;51.938;15.520;2022-11-02T15:15:37;13.66;69.00
70421;SHT31;57848;51.938;15.520;2022-11-02T15:22:50;13.38;69.48
70421;SHT31;57848;51.938;15.520;2022-11-02T15:25:27;13.35;69.58
70421;SHT31;57848;51.938;15.520;2022-11-02T15:27:55;13.28;69.84
70421;SHT31;57848;51.938;15.520;2022-11-02T15:30:27;13.23;70.00
70421;SHT31;57848;51.938;15.520;2022-11-02T15:33:04;13.25;69.97
70421;SHT31;57848;51.938;15.520;2022-11-02T15:35:35;13.15;70.08
70421;SHT31;57848;51.938;15.520;2022-11-02T15:38:03;13.05;70.52
70421;SHT31;57848;51.938;15.520;2022-11-02T15:40:35;13.04;70.43
70421;SHT31;57848;51.938;15.520;2022-11-02T15:46:23;12.88;71.28
70421;SHT31;57848;51.938;15.520;2022-11-02T15:54:16;12.76;71.70
70421;SHT31;57848;51.938;15.520;2022-11-02T15:56:59;12.74;71.67
70421;SHT31;57848;51.938;15.520;2022-11-02T15:59:45;12.67;71.69
70421;SHT31;57848;51.938;15.520;2022-11-02T16:02:22;12.68;71.72
70421;SHT31;57848;51.938;15.520;2022-11-02T16:04:50;12.74;71.90
70421;SHT31;57848;51.938;15.520;2022-11-02T16:07:17;12.80;71.32
70421;SHT31;57848;51.938;15.520;2022-11-02T16:09:44;12.85;70.84
70421;SHT31;57848;51.938;15.520;2022-11-02T16:15:08;13.07;69.92
70421;SHT31;57848;51.938;15.520;2022-11-02T16:17:35;13.04;69.98
70421;SHT31;57848;51.938;15.520;2022-11-02T16:20:09;13.02;70.46
70421;SHT31;57848;51.938;15.520;2022-11-02T16:22:35;13.02;70.22
70421;SHT31;57848;51.938;15.520;2022-11-02T16:25:07;12.98;70.44
70421;SHT31;57848;51.938;15.520;2022-11-02T16:27:37;12.91;70.51
70421;SHT31;57848;51.938;15.520;2022-11-02T16:30:03;12.98;70.15
70421;SHT31;57848;51.938;15.520;2022-11-02T16:32:29;12.95;70.16
70421;SHT31;57848;51.938;15.520;2022-11-02T16:34:55;13.00;69.36
70421;SHT31;57848;51.938;15.520;2022-11-02T16:37:22;12.97;69.12
70421;SHT31;57848;51.938;15.520;2022-11-02T16:39:49;12.92;69.22
70421;SHT31;57848;51.938;15.520;2022-11-02T16:42:17;12.98;69.02
70421;SHT31;57848;51.938;15.520;2022-11-02T16:44:53;13.02;68.60
70421;SHT31;57848;51.938;15.520;2022-11-02T16:47:27;13.02;68.09
70421;SHT31;57848;51.938;15.520;2022-11-02T16:52:29;12.85;68.49
70421;SHT31;57848;51.938;15.520;2022-11-02T16:54:55;12.85;68.59
70421;SHT31;57848;51.938;15.520;2022-11-02T16:57:23;12.76;69.32
70421;SHT31;57848;51.938;15.520;2022-11-02T16:59:54;12.65;69.27
70421;SHT31;57848;51.938;15.520;2022-11-02T17:02:36;12.71;69.22
70421;SHT31;57848;51.938;15.520;2022-11-02T17:05:03;12.79;68.77
70421;SHT31;57848;51.938;15.520;2022-11-02T17:07:32;12.70;69.23
70421;SHT31;57848;51.938;15.520;2022-11-02T17:09:59;12.68;69.10
70421;SHT31;57848;51.938;15.520;2022-11-02T17:12:32;12.61;69.40
70421;SHT31;57848;51.938;15.520;2022-11-02T17:14:59;12.64;69.47
70421;SHT31;57848;51.938;15.520;2022-11-02T17:17:30;12.56;69.36
70421;SHT31;57848;51.938;15.520;2022-11-02T17:20:27;12.52;69.56
70421;SHT31;57848;51.938;15.520;2022-11-02T17:23:01;12.52;69.48
70421;SHT31;57848;51.938;15.520;2022-11-02T17:25:29;12.43;69.84
70421;SHT31;57848;51.938;15.520;2022-11-02T17:27:57;12.43;69.89
70421;SHT31;57848;51.938;15.520;2022-11-02T17:32:54;12.34;70.24
70421;SHT31;57848;51.938;15.520;2022-11-02T17:35:19;12.29;70.27
70421;SHT31;57848;51.938;15.520;2022-11-02T17:37:44;12.28;70.39
70421;SHT31;57848;51.938;15.520;2022-11-02T17:40:10;12.21;70.59